Latest METARs, TAFs and NOTAMs for SKCG


---------------------------------------------------------------------------
	(OBSERVATIONS)
SKCG 212200Z 02010KT CAVOK 29/25 A2979=
SKCG 212100Z 36012KT 9999 FEW020 31/25 A2979=
SKCG 212000Z 01017KT 9999 FEW018 31/26 A2980=
---------------------------------------------------------------------------
	(TERMINAL AREA FORECAST)
SKCG 212300Z 2200/2224 36010KT CAVOK
    BECMG 2205/2206 VRB02KT
    BECMG 2214/2216 36014KT
    TX32/2218Z TN23/2211Z=
---------------------------------------------------------------------------
	(NOTAMS)


SKCG A0030/18 REDL 01/19 OPR EV 120M, EXER CTN. 05 JAN 14:14
    2018 UNTIL 05 APR 23:59 2018 ESTIMATED. CREATED: 05 JAN 14:17
    2018

SKCG A0111/18 SID RNAV AKPE1G RWY 01 COMPLETELY WITHDRAWN REF.
    AMDT 53 - AD 2 - SID 6. 01 MAR 00:00 2018 UNTIL PERM. CREATED:
    17 JAN 15:54 2018

SKCG A0178/18 NOV 14,15,16,17 BTN 0615-1015 DEC 17,18,19,20 BTN
    0610-1015 RWY 01/19 CLSD. FM APR 13 TIL APR 30 BTN 0615-1015
    FM MAY 01 TIL MAY 31 BTN 0615-1015 FM JUN 01 TIL JUN 26 BTN
    0615-1015 JUL 16,17,18,19 BTN 0615-1015 AUG 15,16,17,18 BTN
    0615-1015 SEP 19,20,21,22 BTN 0615-1015 OCT 16,17,18,19,20
    BTN 0615-1015, 13 APR 06:15 2018 UNTIL 20 DEC 10:15 2018.
    CREATED: 26 JAN 10:28 2018

SKCG A0265/18 PAPI R SIDE RWY 19 U/S. 07 FEB 20:00 2018 UNTIL
    27 APR 12:00 2018. CREATED: 07 FEB 21:11 2018

SKCG A0322/18 RWY 01/19 CLSD. DLY BTN 0615-1030 EXC FEB 25 AND
    MAR 04,11, 19 FEB 06:15 2018 UNTIL 30 MAR 10:30 2018. CREATED:
    17 FEB 10:35 2018

SKCG A0542/17 FIRE FIGHTING AND RESCUE CHG TO CAT 8. TUE, THU,
    SAT BTN 2100-2359 WED, FRI, SUN, BTN 0000-0015, 28 MAR 21:00
    2017 UNTIL PERM. CREATED: 23 FEB 19:57 2017

SKCG A2254/17 RWY 01/19 AVBL ONLY TKOF. DLY BTN 1030-1115, 30
    SEP 10:30 2017 UNTIL 30 MAR 11:15 2018. CREATED: 16 AUG 18:58
    2017

SKCG A2997/09 FIRE FIGHTING AND RESCUE DOWNGRADED TO CAT 7 09
    DEC 20:30 UNTIL 10 DEC 23:00 ESTIMATED

SKCG A3324/17 MID AND RWY 01 TRANSMISSOMETER U/S. H24, 28 NOV
    18:30 2017 UNTIL 28 FEB 23:59 2018 ESTIMATED. CREATED: 28
    NOV 18:37 2017

SKCG V0423/17 [US DOD PROCEDURAL NOTAM] INSTRUMENT APPROACH PROCEDURE
    AMENDMENT VOR RWY 01 AMEND NAME TO VOR X RWY 01, AMEND CAUTION
    NOTE: FINAL APPROACH COURSE INTERSECTS EXTENDED CENTERLINE
    6152' OUTWARD OF RWY THLD. AMEND FAF ALTITUDE TO AT OR ABOVE
    2760FT. 28 NOV 19:41 2017 UNTIL 31 MAR 23:59 2018. CREATED:
    28 NOV 19:41 2017

---------------------------------------------------------------------------